createdAt,value
2018-06-30T00:00:53.092Z,14.20
2018-06-30T00:03:25.917Z,14.20
2018-06-30T00:05:54.922Z,14.10
2018-06-30T00:08:23.909Z,14.00
2018-06-30T00:10:52.932Z,14.10
2018-06-30T00:13:21.921Z,14.00
2018-06-30T00:15:51.375Z,14.00
2018-06-30T00:18:20.372Z,14.00
2018-06-30T00:20:49.377Z,14.00
2018-06-30T00:23:18.402Z,14.00
2018-06-30T00:25:47.440Z,14.00
2018-06-30T00:28:16.429Z,13.80
2018-06-30T00:33:14.071Z,13.90
2018-06-30T00:35:43.145Z,13.90
2018-06-30T00:38:12.151Z,13.80
2018-06-30T00:43:09.858Z,13.70
2018-06-30T00:45:38.911Z,13.70
2018-06-30T00:48:07.945Z,13.70
2018-06-30T00:50:36.965Z,13.80
2018-06-30T00:53:05.991Z,13.80
2018-06-30T00:55:35.063Z,13.70
2018-06-30T00:58:04.189Z,13.60
2018-06-30T01:00:33.225Z,13.50
2018-06-30T01:03:02.257Z,13.60
2018-06-30T01:05:31.337Z,13.50
2018-06-30T01:08:00.577Z,13.40
2018-06-30T01:10:29.581Z,13.40
2018-06-30T01:12:58.613Z,13.30
2018-06-30T01:15:27.601Z,13.40
2018-06-30T01:17:56.664Z,13.40
2018-06-30T01:20:25.710Z,13.30
2018-06-30T01:22:54.730Z,13.20
2018-06-30T01:25:23.744Z,13.20
2018-06-30T01:27:52.847Z,13.30
2018-06-30T01:30:21.908Z,13.30
2018-06-30T01:32:50.896Z,13.20
2018-06-30T01:35:19.912Z,13.20
2018-06-30T01:37:48.941Z,13.20
2018-06-30T01:40:17.964Z,13.10
2018-06-30T01:42:46.949Z,13.00
2018-06-30T01:45:15.939Z,13.00
2018-06-30T01:47:44.972Z,13.00
2018-06-30T01:50:13.956Z,13.00
2018-06-30T01:52:42.981Z,13.00
2018-06-30T01:55:12.337Z,12.90
2018-06-30T01:57:41.341Z,12.80
2018-06-30T02:00:10.340Z,12.80
2018-06-30T02:02:39.355Z,12.70
2018-06-30T02:05:08.356Z,12.80
2018-06-30T02:07:37.346Z,12.70
2018-06-30T02:10:06.369Z,12.70
2018-06-30T02:12:35.406Z,12.80
2018-06-30T02:15:05.062Z,12.70
2018-06-30T02:17:34.050Z,12.70
2018-06-30T02:20:03.282Z,12.60
2018-06-30T02:22:32.301Z,12.50
2018-06-30T02:25:01.292Z,12.50
2018-06-30T02:27:30.341Z,12.50
2018-06-30T02:29:59.370Z,12.40
2018-06-30T02:32:28.363Z,12.40
2018-06-30T02:34:57.353Z,12.40
2018-06-30T02:37:26.385Z,12.30
2018-06-30T02:39:55.571Z,12.10
2018-06-30T02:42:24.577Z,12.10
2018-06-30T02:44:53.610Z,12.00
2018-06-30T02:47:22.606Z,11.90
2018-06-30T02:49:51.600Z,11.90
2018-06-30T02:52:21.008Z,11.80
2018-06-30T02:54:50.011Z,11.80
2018-06-30T02:57:18.989Z,11.90
2018-06-30T02:59:48.005Z,11.80
2018-06-30T03:02:17.003Z,11.80
2018-06-30T03:04:45.990Z,11.70
2018-06-30T03:07:15.004Z,11.60
2018-06-30T03:09:44.168Z,11.60
2018-06-30T03:12:13.281Z,11.60
2018-06-30T03:14:42.282Z,11.60
2018-06-30T03:17:11.316Z,11.50
2018-06-30T03:19:40.304Z,11.60
2018-06-30T03:22:09.330Z,11.70
2018-06-30T03:24:38.320Z,11.70
2018-06-30T03:27:07.537Z,11.70
2018-06-30T03:29:36.556Z,11.70
2018-06-30T03:32:05.584Z,11.60
2018-06-30T03:34:34.667Z,11.60
2018-06-30T03:37:03.661Z,11.60
2018-06-30T03:39:32.644Z,11.70
2018-06-30T03:42:01.664Z,11.80
2018-06-30T03:44:30.689Z,11.90
2018-06-30T03:46:59.684Z,12.40
2018-06-30T03:49:28.961Z,12.70
2018-06-30T03:51:57.952Z,13.00
2018-06-30T03:54:26.936Z,13.20
2018-06-30T03:56:56.283Z,13.50
2018-06-30T03:59:25.295Z,14.20
2018-06-30T04:01:54.353Z,15.20
2018-06-30T04:04:23.385Z,16.20
2018-06-30T04:06:52.441Z,17.00
2018-06-30T04:09:21.473Z,16.70
2018-06-30T04:11:50.457Z,16.00
2018-06-30T04:14:19.483Z,15.00
2018-06-30T04:16:48.554Z,14.50
2018-06-30T04:19:17.753Z,14.10
2018-06-30T04:21:47.599Z,13.90
2018-06-30T04:24:16.599Z,13.90
2018-06-30T04:26:45.604Z,14.00
2018-06-30T04:29:14.941Z,14.30
2018-06-30T04:31:43.945Z,14.30
2018-06-30T04:34:12.995Z,14.40
2018-06-30T04:36:42.220Z,14.30
2018-06-30T04:39:11.224Z,14.40
2018-06-30T04:41:40.215Z,14.70
2018-06-30T04:44:10.060Z,14.80
2018-06-30T04:46:39.046Z,15.10
2018-06-30T04:49:08.029Z,15.10
2018-06-30T04:51:37.125Z,14.80
2018-06-30T04:54:06.168Z,14.80
2018-06-30T04:56:35.152Z,14.70
2018-06-30T04:59:04.216Z,14.40
2018-06-30T05:06:30.529Z,15.30
2018-06-30T05:11:28.236Z,15.20
2018-06-30T05:13:57.257Z,15.30
2018-06-30T05:16:26.244Z,15.30
2018-06-30T05:18:55.252Z,15.60
2018-06-30T05:21:24.273Z,15.50
2018-06-30T05:23:53.265Z,15.40
2018-06-30T05:26:22.276Z,15.40
2018-06-30T05:28:51.304Z,15.50
2018-06-30T05:31:20.293Z,15.80
2018-06-30T05:33:49.338Z,16.00
2018-06-30T05:36:18.324Z,16.10
2018-06-30T05:38:47.314Z,16.30
2018-06-30T05:41:16.341Z,16.50
2018-06-30T05:43:45.386Z,16.40
2018-06-30T05:46:14.382Z,16.30
2018-06-30T05:48:43.368Z,16.20
2018-06-30T05:51:12.488Z,16.10
2018-06-30T05:53:41.475Z,16.30
2018-06-30T05:56:10.460Z,16.40
2018-06-30T05:58:39.482Z,16.30
2018-06-30T06:01:08.489Z,16.40
2018-06-30T06:03:37.534Z,16.60
2018-06-30T06:06:06.564Z,16.60
2018-06-30T06:08:35.545Z,16.80
2018-06-30T06:11:04.568Z,17.40
2018-06-30T06:13:33.602Z,17.40
2018-06-30T06:16:02.633Z,17.30
2018-06-30T06:18:31.625Z,16.80
2018-06-30T06:21:00.641Z,16.90
2018-06-30T06:23:29.629Z,16.90
2018-06-30T06:25:58.656Z,16.90
2018-06-30T06:28:27.649Z,17.00
2018-06-30T06:30:56.661Z,17.10
2018-06-30T06:33:25.671Z,17.20
2018-06-30T06:35:54.661Z,17.40
2018-06-30T06:38:23.682Z,17.30
2018-06-30T06:40:52.705Z,17.50
2018-06-30T06:43:21.692Z,17.60
2018-06-30T06:45:50.677Z,18.00
2018-06-30T06:48:19.697Z,18.20
2018-06-30T06:50:48.703Z,18.10
2018-06-30T06:53:17.730Z,18.00
2018-06-30T06:55:46.953Z,17.90
2018-06-30T06:58:15.996Z,17.70
2018-06-30T07:00:45.097Z,18.00
2018-06-30T07:03:14.117Z,17.90
2018-06-30T07:05:43.150Z,18.00
2018-06-30T07:08:12.160Z,17.90
2018-06-30T07:10:41.144Z,18.10
2018-06-30T07:13:10.192Z,18.10
2018-06-30T07:15:39.230Z,18.10
2018-06-30T07:18:08.208Z,18.00
2018-06-30T07:20:37.420Z,17.90
2018-06-30T07:23:06.395Z,18.00
2018-06-30T07:25:35.440Z,18.20
2018-06-30T07:28:04.430Z,18.10
2018-06-30T07:30:33.457Z,18.20
2018-06-30T07:33:02.500Z,18.20
2018-06-30T07:35:31.511Z,18.50
2018-06-30T07:38:00.537Z,18.70
2018-06-30T07:40:29.613Z,18.40
2018-06-30T07:42:58.608Z,18.80
2018-06-30T07:45:27.776Z,18.90
2018-06-30T07:47:56.765Z,19.00
2018-06-30T07:50:25.809Z,18.90
2018-06-30T07:52:54.775Z,19.30
2018-06-30T07:55:23.789Z,19.60
2018-06-30T07:57:52.864Z,19.40
2018-06-30T08:00:21.891Z,19.00
2018-06-30T08:02:50.875Z,18.50
2018-06-30T08:07:48.532Z,18.30
2018-06-30T08:10:17.569Z,18.80
2018-06-30T08:12:46.584Z,18.90
2018-06-30T08:15:15.926Z,19.20
2018-06-30T08:17:44.949Z,19.60
2018-06-30T08:20:13.924Z,19.20
2018-06-30T08:22:42.945Z,19.20
2018-06-30T08:25:11.966Z,19.10
2018-06-30T08:27:41.052Z,19.00
2018-06-30T08:30:10.085Z,18.70
2018-06-30T08:32:39.062Z,18.40
2018-06-30T08:35:08.089Z,18.50
2018-06-30T08:37:37.077Z,18.70
2018-06-30T08:40:06.084Z,18.60
2018-06-30T08:42:35.440Z,18.50
2018-06-30T08:45:04.460Z,18.40
2018-06-30T08:47:33.456Z,18.50
2018-06-30T08:50:02.484Z,19.10
2018-06-30T08:52:31.526Z,19.20
2018-06-30T08:55:00.549Z,18.80
2018-06-30T08:57:29.538Z,18.80
2018-06-30T08:59:58.631Z,18.70
2018-06-30T09:02:27.794Z,18.90
2018-06-30T09:04:56.822Z,18.90
2018-06-30T09:07:25.817Z,18.90
2018-06-30T09:09:54.868Z,18.70
2018-06-30T09:12:23.940Z,18.50
2018-06-30T09:14:52.946Z,18.40
2018-06-30T09:19:50.900Z,18.80
2018-06-30T09:22:20.566Z,19.00
2018-06-30T09:24:49.910Z,20.00
2018-06-30T09:27:19.025Z,20.90
2018-06-30T09:29:48.181Z,20.60
2018-06-30T09:32:17.257Z,20.40
2018-06-30T09:34:46.372Z,20.30
2018-06-30T09:37:15.445Z,19.90
2018-06-30T09:39:44.614Z,20.00
2018-06-30T09:42:14.233Z,20.00
2018-06-30T09:44:43.653Z,20.30
2018-06-30T09:47:12.737Z,20.10
2018-06-30T09:49:41.773Z,19.80
2018-06-30T09:52:10.802Z,19.70
2018-06-30T09:54:39.816Z,19.50
2018-06-30T09:57:09.256Z,20.20
2018-06-30T09:59:38.371Z,20.80
2018-06-30T10:02:07.369Z,20.50
2018-06-30T10:04:36.516Z,20.50
2018-06-30T10:07:05.736Z,19.90
2018-06-30T10:09:34.762Z,19.40
2018-06-30T10:12:03.785Z,19.30
2018-06-30T10:14:32.940Z,19.10
2018-06-30T10:17:02.088Z,19.30
2018-06-30T10:19:31.104Z,19.00
2018-06-30T10:22:00.233Z,19.00
2018-06-30T10:24:29.225Z,19.70
2018-06-30T10:26:58.237Z,19.90
2018-06-30T10:29:27.354Z,19.90
2018-06-30T10:31:56.346Z,19.50
2018-06-30T10:34:25.617Z,19.70
2018-06-30T10:36:54.668Z,19.70
2018-06-30T10:39:23.667Z,19.60
2018-06-30T10:41:52.845Z,19.70
2018-06-30T10:44:21.880Z,20.00
2018-06-30T10:46:50.907Z,19.60
2018-06-30T10:49:19.909Z,19.30
2018-06-30T10:51:49.055Z,19.20
2018-06-30T10:54:18.105Z,19.50
2018-06-30T10:59:15.762Z,19.20
2018-06-30T11:01:44.795Z,19.50
2018-06-30T11:04:13.851Z,20.00
2018-06-30T11:06:42.808Z,20.30
2018-06-30T11:09:12.681Z,20.10
2018-06-30T11:11:41.683Z,20.60
2018-06-30T11:14:10.683Z,20.80
2018-06-30T11:16:39.832Z,20.90
2018-06-30T11:19:08.826Z,20.90
2018-06-30T11:21:37.907Z,21.30
2018-06-30T11:24:06.929Z,21.60
2018-06-30T11:26:35.988Z,21.70
2018-06-30T11:29:05.057Z,22.20
2018-06-30T11:31:34.117Z,22.20
2018-06-30T11:34:03.097Z,22.10
2018-06-30T11:36:32.124Z,21.90
2018-06-30T11:39:01.115Z,22.10
2018-06-30T11:41:30.101Z,21.60
2018-06-30T11:43:59.169Z,21.20
2018-06-30T11:46:28.150Z,21.50
2018-06-30T11:48:57.136Z,21.70
2018-06-30T11:51:26.158Z,21.50
2018-06-30T11:53:55.292Z,21.30
2018-06-30T11:56:24.285Z,21.10
2018-06-30T11:58:53.267Z,20.60
2018-06-30T12:01:22.285Z,20.60
2018-06-30T12:03:51.288Z,20.50
2018-06-30T12:06:20.325Z,20.70
2018-06-30T12:08:49.713Z,20.50
2018-06-30T12:11:18.736Z,20.70
2018-06-30T12:13:47.737Z,20.50
2018-06-30T12:16:16.765Z,20.30
2018-06-30T12:18:45.793Z,20.20
2018-06-30T12:21:14.792Z,20.20
2018-06-30T12:23:43.821Z,20.30
2018-06-30T12:26:12.814Z,20.20
2018-06-30T12:28:41.838Z,20.40
2018-06-30T12:31:10.829Z,20.50
2018-06-30T12:33:39.865Z,20.90
2018-06-30T12:36:08.895Z,20.90
2018-06-30T12:38:37.885Z,20.70
2018-06-30T12:41:06.925Z,21.20
2018-06-30T12:43:35.905Z,21.50
2018-06-30T12:46:04.985Z,21.40
2018-06-30T12:48:33.972Z,21.20
2018-06-30T12:51:03.053Z,21.10
2018-06-30T12:53:32.036Z,21.20
2018-06-30T12:56:01.020Z,21.60
2018-06-30T12:58:30.048Z,22.20
2018-06-30T13:00:59.149Z,21.80
2018-06-30T13:03:28.173Z,21.30
2018-06-30T13:05:57.185Z,21.10
2018-06-30T13:08:26.185Z,20.80
2018-06-30T13:10:55.313Z,20.50
2018-06-30T13:13:24.305Z,20.40
2018-06-30T13:15:53.280Z,20.30
2018-06-30T13:18:22.308Z,20.40
2018-06-30T13:20:51.307Z,20.40
2018-06-30T13:23:20.379Z,20.30
2018-06-30T13:25:49.341Z,20.20
2018-06-30T13:28:18.319Z,20.80
2018-06-30T13:30:47.430Z,21.50
2018-06-30T13:33:16.409Z,21.90
2018-06-30T13:35:45.396Z,21.40
2018-06-30T13:38:14.411Z,21.30
2018-06-30T13:40:43.471Z,21.20
2018-06-30T13:43:12.899Z,21.60
2018-06-30T13:45:41.861Z,22.10
2018-06-30T13:48:10.840Z,22.70
2018-06-30T13:50:39.866Z,22.50
2018-06-30T13:53:08.980Z,22.60
2018-06-30T13:55:38.041Z,22.20
2018-06-30T13:58:07.096Z,21.60
2018-06-30T14:00:36.097Z,21.50
2018-06-30T14:03:05.197Z,21.20
2018-06-30T14:05:34.242Z,21.30
2018-06-30T14:08:03.239Z,21.50
2018-06-30T14:10:32.216Z,21.80
2018-06-30T14:13:01.242Z,21.80
2018-06-30T14:15:30.277Z,22.10
2018-06-30T14:17:59.528Z,22.10
2018-06-30T14:20:28.525Z,22.30
2018-06-30T14:22:57.529Z,22.30
2018-06-30T14:25:26.554Z,21.60
2018-06-30T14:27:55.561Z,21.00
2018-06-30T14:30:24.765Z,20.70
2018-06-30T14:32:53.753Z,20.40
2018-06-30T14:35:22.748Z,20.30
2018-06-30T14:37:51.765Z,20.40
2018-06-30T14:40:20.976Z,21.20
2018-06-30T14:42:49.961Z,21.80
2018-06-30T14:45:18.957Z,21.90
2018-06-30T14:47:48.204Z,21.80
2018-06-30T14:50:17.230Z,21.60
2018-06-30T14:52:46.221Z,22.00
2018-06-30T14:55:15.383Z,22.40
2018-06-30T14:57:44.384Z,23.10
2018-06-30T15:00:13.472Z,22.50
2018-06-30T15:02:42.774Z,22.00
2018-06-30T15:05:12.335Z,21.20
2018-06-30T15:07:41.366Z,20.80
2018-06-30T15:10:10.460Z,20.60
2018-06-30T15:12:39.517Z,20.90
2018-06-30T15:15:08.605Z,20.90
2018-06-30T15:17:37.705Z,21.20
2018-06-30T15:20:06.968Z,22.80
2018-06-30T15:22:36.110Z,24.50
2018-06-30T15:25:05.517Z,25.10
2018-06-30T15:27:34.701Z,25.10
2018-06-30T15:30:03.834Z,26.10
2018-06-30T15:32:32.955Z,26.40
2018-06-30T15:35:01.979Z,25.30
2018-06-30T15:37:31.026Z,24.90
2018-06-30T15:40:00.026Z,23.00
2018-06-30T15:44:57.820Z,21.80
2018-06-30T15:47:26.825Z,22.10
2018-06-30T15:49:55.857Z,22.50
2018-06-30T15:52:24.994Z,23.40
2018-06-30T15:54:54.037Z,24.20
2018-06-30T15:57:23.098Z,25.20
2018-06-30T15:59:52.114Z,26.60
2018-06-30T16:02:21.170Z,27.40
2018-06-30T16:04:50.168Z,27.70
2018-06-30T16:07:19.190Z,26.60
2018-06-30T16:09:48.342Z,26.90
2018-06-30T16:12:24.136Z,27.40
2018-06-30T16:14:53.180Z,28.60
2018-06-30T16:17:22.233Z,28.00
2018-06-30T16:19:51.242Z,25.40
2018-06-30T16:22:20.310Z,23.30
2018-06-30T16:24:49.342Z,22.50
2018-06-30T16:27:18.373Z,21.90
2018-06-30T16:29:47.461Z,22.90
2018-06-30T16:32:16.582Z,23.80
2018-06-30T16:34:45.585Z,24.20
2018-06-30T16:37:14.600Z,25.20
2018-06-30T16:39:43.609Z,26.80
2018-06-30T16:42:12.608Z,28.20
2018-06-30T16:44:41.629Z,27.30
2018-06-30T16:47:10.649Z,24.80
2018-06-30T16:49:39.637Z,24.50
2018-06-30T16:52:08.652Z,23.10
2018-06-30T16:54:37.645Z,21.80
2018-06-30T16:57:07.054Z,20.90
2018-06-30T16:59:36.042Z,20.60
2018-06-30T17:02:05.088Z,20.40
2018-06-30T17:04:34.104Z,20.50
2018-06-30T17:07:03.114Z,20.40
2018-06-30T17:09:32.292Z,20.30
2018-06-30T17:12:01.281Z,20.00
2018-06-30T17:14:30.361Z,19.80
2018-06-30T17:16:59.481Z,19.70
2018-06-30T17:19:28.565Z,19.60
2018-06-30T17:21:57.624Z,19.50
2018-06-30T17:24:26.638Z,19.60
2018-06-30T17:26:55.812Z,19.70
2018-06-30T17:29:24.837Z,19.90
2018-06-30T17:31:54.027Z,20.20
2018-06-30T17:34:23.140Z,20.40
2018-06-30T17:36:52.135Z,20.40
2018-06-30T17:39:21.120Z,20.30
2018-06-30T17:41:50.144Z,20.40
2018-06-30T17:44:19.164Z,20.80
2018-06-30T17:46:48.195Z,21.20
2018-06-30T17:49:17.181Z,21.20
2018-06-30T17:51:46.205Z,21.20
2018-06-30T17:54:15.201Z,21.70
2018-06-30T17:56:44.231Z,21.90
2018-06-30T17:59:13.274Z,22.90
2018-06-30T18:01:42.299Z,23.50
2018-06-30T18:04:11.316Z,23.40
2018-06-30T18:06:40.782Z,23.50
2018-06-30T18:09:10.946Z,22.50
2018-06-30T18:11:40.592Z,21.50
2018-06-30T18:14:09.945Z,20.80
2018-06-30T18:16:39.131Z,20.30
2018-06-30T18:19:08.158Z,19.90
2018-06-30T18:21:37.393Z,19.70
2018-06-30T18:24:06.585Z,19.70
2018-06-30T18:26:35.613Z,19.70
2018-06-30T18:29:05.404Z,19.70
2018-06-30T18:31:34.601Z,19.90
2018-06-30T18:34:03.634Z,19.70
2018-06-30T18:36:32.753Z,19.80
2018-06-30T18:39:01.789Z,19.50
2018-06-30T18:41:31.093Z,19.10
2018-06-30T18:44:00.101Z,18.90
2018-06-30T18:46:29.132Z,18.60
2018-06-30T18:48:58.248Z,18.50
2018-06-30T18:51:27.309Z,18.50
2018-06-30T18:53:56.313Z,18.30
2018-06-30T18:56:25.382Z,18.30
2018-06-30T18:58:54.444Z,18.20
2018-06-30T19:01:23.602Z,18.10
2018-06-30T19:03:53.053Z,18.00
2018-06-30T19:06:22.110Z,18.00
2018-06-30T19:08:51.155Z,18.00
2018-06-30T19:11:20.234Z,18.00
2018-06-30T19:13:49.276Z,17.90
2018-06-30T19:16:19.149Z,17.80
2018-06-30T19:18:48.177Z,17.80
2018-06-30T19:21:17.304Z,17.60
2018-06-30T19:23:46.321Z,17.60
2018-06-30T19:26:15.419Z,17.60
2018-06-30T19:28:44.476Z,17.40
2018-06-30T19:31:13.819Z,17.30
2018-06-30T19:33:42.904Z,17.20
2018-06-30T19:36:11.958Z,17.20
2018-06-30T19:38:40.992Z,17.20
2018-06-30T19:41:10.109Z,17.10
2018-06-30T19:43:39.147Z,17.00
2018-06-30T19:46:08.226Z,17.00
2018-06-30T19:48:37.431Z,16.90
2018-06-30T19:51:06.461Z,16.90
2018-06-30T19:53:35.584Z,16.80
2018-06-30T19:56:04.729Z,16.80
2018-06-30T19:58:33.747Z,16.60
2018-06-30T20:01:02.769Z,16.50
2018-06-30T20:03:31.765Z,16.50
2018-06-30T20:06:00.780Z,16.40
2018-06-30T20:08:29.877Z,16.40
2018-06-30T20:10:58.893Z,16.30
2018-06-30T20:13:27.963Z,16.20
2018-06-30T20:15:56.995Z,16.10
2018-06-30T20:18:25.977Z,16.00
2018-06-30T20:20:55.029Z,15.80
2018-06-30T20:23:24.105Z,15.60
2018-06-30T20:28:21.768Z,15.40
2018-06-30T20:30:50.801Z,15.20
2018-06-30T20:33:20.211Z,15.20
2018-06-30T20:35:49.088Z,15.10
2018-06-30T20:38:18.084Z,15.00
2018-06-30T20:40:47.185Z,14.90
2018-06-30T20:43:16.215Z,14.90
2018-06-30T20:45:46.176Z,14.80
2018-06-30T20:48:15.587Z,14.60
2018-06-30T20:53:13.471Z,14.40
2018-06-30T20:55:42.757Z,14.30
2018-06-30T20:58:11.775Z,14.20
2018-06-30T21:00:40.760Z,14.20
2018-06-30T21:03:11.265Z,14.10
2018-06-30T21:05:40.249Z,14.00
2018-06-30T21:08:09.471Z,13.80
2018-06-30T21:10:38.796Z,13.80
2018-06-30T21:13:07.919Z,13.90
2018-06-30T21:15:36.949Z,14.00
2018-06-30T21:18:05.957Z,14.10
2018-06-30T21:20:35.221Z,13.90
2018-06-30T21:23:04.207Z,13.70
2018-06-30T21:25:33.201Z,13.50
2018-06-30T21:28:02.217Z,13.50
2018-06-30T21:30:31.237Z,13.50
2018-06-30T21:33:00.255Z,13.40
2018-06-30T21:37:58.018Z,13.50
2018-06-30T21:40:27.009Z,13.40
2018-06-30T21:42:56.038Z,13.30
2018-06-30T21:45:25.080Z,13.20
2018-06-30T21:47:54.117Z,13.00
2018-06-30T21:50:23.105Z,12.90
2018-06-30T21:52:52.105Z,12.70
2018-06-30T21:55:21.122Z,12.60
2018-06-30T21:57:50.144Z,12.60
2018-06-30T22:00:28.445Z,12.60
2018-06-30T22:02:57.833Z,12.50
2018-06-30T22:05:26.824Z,12.50
2018-06-30T22:07:55.865Z,12.60
2018-06-30T22:10:25.053Z,12.60
2018-06-30T22:12:54.092Z,12.70
2018-06-30T22:15:23.089Z,12.70
2018-06-30T22:17:52.118Z,12.70
2018-06-30T22:20:21.105Z,12.80
2018-06-30T22:22:50.392Z,12.80
2018-06-30T22:25:19.389Z,12.90
2018-06-30T22:27:48.386Z,12.90
2018-06-30T22:30:17.404Z,13.00
2018-06-30T22:32:46.401Z,12.90
2018-06-30T22:35:15.461Z,12.80
2018-06-30T22:37:44.440Z,12.60
2018-06-30T22:40:17.099Z,12.40
2018-06-30T22:42:46.565Z,12.50
2018-06-30T22:45:16.215Z,12.50
2018-06-30T22:47:45.935Z,12.50
2018-06-30T22:50:15.940Z,12.40
2018-06-30T22:52:45.229Z,12.50
2018-06-30T22:55:14.355Z,12.40
2018-06-30T23:00:13.814Z,12.50
2018-06-30T23:02:42.592Z,12.60
2018-06-30T23:10:10.940Z,12.50
2018-06-30T23:12:40.000Z,12.50
2018-06-30T23:15:10.130Z,12.50
2018-06-30T23:17:39.141Z,12.50
2018-06-30T23:20:08.717Z,12.40
2018-06-30T23:22:54.761Z,12.40
2018-06-30T23:25:24.952Z,12.50
2018-06-30T23:27:54.169Z,12.40
2018-06-30T23:30:23.456Z,12.30
2018-06-30T23:32:52.584Z,12.30
2018-06-30T23:35:22.973Z,12.20
2018-06-30T23:37:52.457Z,12.00
2018-06-30T23:40:21.571Z,12.00
2018-06-30T23:42:50.609Z,11.90
2018-06-30T23:45:19.877Z,12.00
2018-06-30T23:47:49.384Z,11.80
2018-06-30T23:50:18.416Z,11.60
2018-06-30T23:52:47.415Z,11.40
2018-06-30T23:55:16.469Z,11.30
2018-06-30T23:57:45.485Z,11.20
